sensor_id;sensor_type;location;lat;lon;timestamp;temperature;humidity
40622;DHT22;26324;52.040;11.528;2023-04-03T00:00:56;0.50;80.90
40622;DHT22;26324;52.040;11.528;2023-04-03T00:03:23;0.50;80.90
40622;DHT22;26324;52.040;11.528;2023-04-03T00:05:51;0.50;80.90
40622;DHT22;26324;52.040;11.528;2023-04-03T00:08:18;0.50;81.00
40622;DHT22;26324;52.040;11.528;2023-04-03T00:10:46;0.50;81.10
40622;DHT22;26324;52.040;11.528;2023-04-03T00:13:14;0.50;81.20
40622;DHT22;26324;52.040;11.528;2023-04-03T00:15:41;0.40;81.20
40622;DHT22;26324;52.040;11.528;2023-04-03T00:18:08;0.40;81.20
40622;DHT22;26324;52.040;11.528;2023-04-03T00:20:36;0.30;81.40
40622;DHT22;26324;52.040;11.528;2023-04-03T00:23:04;0.30;81.40
40622;DHT22;26324;52.040;11.528;2023-04-03T00:25:31;0.30;81.40
40622;DHT22;26324;52.040;11.528;2023-04-03T00:27:59;0.30;81.30
40622;DHT22;26324;52.040;11.528;2023-04-03T00:30:26;0.30;81.30
40622;DHT22;26324;52.040;11.528;2023-04-03T00:32:53;0.20;81.40
40622;DHT22;26324;52.040;11.528;2023-04-03T00:35:21;0.20;81.60
40622;DHT22;26324;52.040;11.528;2023-04-03T00:37:51;0.20;81.70
40622;DHT22;26324;52.040;11.528;2023-04-03T00:40:20;0.10;81.80
40622;DHT22;26324;52.040;11.528;2023-04-03T00:42:49;0.10;81.80
40622;DHT22;26324;52.040;11.528;2023-04-03T00:47:45;0.00;82.10
40622;DHT22;26324;52.040;11.528;2023-04-03T00:50:13;0.10;82.20
40622;DHT22;26324;52.040;11.528;2023-04-03T00:52:40;0.00;82.10
40622;DHT22;26324;52.040;11.528;2023-04-03T00:55:08;0.00;82.40
40622;DHT22;26324;52.040;11.528;2023-04-03T00:57:37;0.00;82.30
40622;DHT22;26324;52.040;11.528;2023-04-03T01:00:08;0.00;82.10
40622;DHT22;26324;52.040;11.528;2023-04-03T01:02:36;0.00;82.20
40622;DHT22;26324;52.040;11.528;2023-04-03T01:05:04;0.00;82.60
40622;DHT22;26324;52.040;11.528;2023-04-03T01:07:33;0.00;82.50
40622;DHT22;26324;52.040;11.528;2023-04-03T01:10:07;0.00;82.50
40622;DHT22;26324;52.040;11.528;2023-04-03T01:12:38;0.00;82.50
40622;DHT22;26324;52.040;11.528;2023-04-03T01:15:12;0.00;82.40
40622;DHT22;26324;52.040;11.528;2023-04-03T01:17:41;0.00;82.40
40622;DHT22;26324;52.040;11.528;2023-04-03T01:25:47;0.00;82.90
40622;DHT22;26324;52.040;11.528;2023-04-03T01:28:24;0.00;82.90
40622;DHT22;26324;52.040;11.528;2023-04-03T01:33:35;-3276.70;83.20
40622;DHT22;26324;52.040;11.528;2023-04-03T01:36:02;-3276.70;83.10
40622;DHT22;26324;52.040;11.528;2023-04-03T01:38:31;0.00;83.20
40622;DHT22;26324;52.040;11.528;2023-04-03T01:40:58;-3276.70;83.20
40622;DHT22;26324;52.040;11.528;2023-04-03T01:43:25;-3276.70;83.20
40622;DHT22;26324;52.040;11.528;2023-04-03T01:45:53;-3276.70;83.20
40622;DHT22;26324;52.040;11.528;2023-04-03T01:48:21;-3276.70;83.30
40622;DHT22;26324;52.040;11.528;2023-04-03T01:50:49;-3276.70;83.40
40622;DHT22;26324;52.040;11.528;2023-04-03T01:53:16;-3276.60;83.30
40622;DHT22;26324;52.040;11.528;2023-04-03T01:55:43;-3276.70;83.50
40622;DHT22;26324;52.040;11.528;2023-04-03T01:58:11;-3276.70;83.40
40622;DHT22;26324;52.040;11.528;2023-04-03T02:00:38;-3276.60;83.40
40622;DHT22;26324;52.040;11.528;2023-04-03T02:03:05;-3276.70;83.40
40622;DHT22;26324;52.040;11.528;2023-04-03T02:05:34;-3276.60;83.40
40622;DHT22;26324;52.040;11.528;2023-04-03T02:08:01;-3276.60;83.40
40622;DHT22;26324;52.040;11.528;2023-04-03T02:10:28;-3276.50;83.50
40622;DHT22;26324;52.040;11.528;2023-04-03T02:12:56;-3276.60;83.40
40622;DHT22;26324;52.040;11.528;2023-04-03T02:15:24;-3276.60;83.40
40622;DHT22;26324;52.040;11.528;2023-04-03T02:17:52;-3276.60;83.50
40622;DHT22;26324;52.040;11.528;2023-04-03T02:20:20;-3276.50;83.50
40622;DHT22;26324;52.040;11.528;2023-04-03T02:22:48;-3276.50;83.50
40622;DHT22;26324;52.040;11.528;2023-04-03T02:25:15;-3276.50;83.50
40622;DHT22;26324;52.040;11.528;2023-04-03T02:27:44;-3276.50;83.40
40622;DHT22;26324;52.040;11.528;2023-04-03T02:30:12;-3276.50;83.40
40622;DHT22;26324;52.040;11.528;2023-04-03T02:32:40;-3276.50;83.50
40622;DHT22;26324;52.040;11.528;2023-04-03T02:35:08;-3276.50;83.50
40622;DHT22;26324;52.040;11.528;2023-04-03T02:37:36;-3276.40;83.50
40622;DHT22;26324;52.040;11.528;2023-04-03T02:40:04;-3276.50;83.40
40622;DHT22;26324;52.040;11.528;2023-04-03T02:42:31;-3276.40;83.60
40622;DHT22;26324;52.040;11.528;2023-04-03T02:44:59;-3276.40;83.50
40622;DHT22;26324;52.040;11.528;2023-04-03T02:47:28;-3276.40;83.70
40622;DHT22;26324;52.040;11.528;2023-04-03T02:49:55;-3276.40;83.50
40622;DHT22;26324;52.040;11.528;2023-04-03T02:52:22;-3276.40;83.60
40622;DHT22;26324;52.040;11.528;2023-04-03T02:54:51;-3276.30;83.70
40622;DHT22;26324;52.040;11.528;2023-04-03T02:57:18;-3276.30;83.70
40622;DHT22;26324;52.040;11.528;2023-04-03T02:59:47;-3276.30;83.60
40622;DHT22;26324;52.040;11.528;2023-04-03T03:02:14;-3276.30;83.50
40622;DHT22;26324;52.040;11.528;2023-04-03T03:04:42;-3276.20;83.70
40622;DHT22;26324;52.040;11.528;2023-04-03T03:07:10;-3276.20;83.60
40622;DHT22;26324;52.040;11.528;2023-04-03T03:09:37;-3276.10;83.60
40622;DHT22;26324;52.040;11.528;2023-04-03T03:12:04;-3276.10;83.70
40622;DHT22;26324;52.040;11.528;2023-04-03T03:14:32;-3276.10;83.80
40622;DHT22;26324;52.040;11.528;2023-04-03T03:16:59;-3276.10;83.80
40622;DHT22;26324;52.040;11.528;2023-04-03T03:19:26;-3276.10;83.80
40622;DHT22;26324;52.040;11.528;2023-04-03T03:21:54;-3276.00;83.70
40622;DHT22;26324;52.040;11.528;2023-04-03T03:24:22;-3276.00;83.70
40622;DHT22;26324;52.040;11.528;2023-04-03T03:26:49;-3276.00;84.10
40622;DHT22;26324;52.040;11.528;2023-04-03T03:29:16;-3276.00;84.10
40622;DHT22;26324;52.040;11.528;2023-04-03T03:31:44;-3276.00;84.40
40622;DHT22;26324;52.040;11.528;2023-04-03T03:34:12;-3276.00;84.40
40622;DHT22;26324;52.040;11.528;2023-04-03T03:36:40;-3276.00;84.30
40622;DHT22;26324;52.040;11.528;2023-04-03T03:39:08;-3276.00;84.30
40622;DHT22;26324;52.040;11.528;2023-04-03T03:41:36;-3276.00;84.30
40622;DHT22;26324;52.040;11.528;2023-04-03T03:44:04;-3275.90;84.20
40622;DHT22;26324;52.040;11.528;2023-04-03T03:46:32;-3275.90;84.20
40622;DHT22;26324;52.040;11.528;2023-04-03T03:49:00;-3275.90;84.20
40622;DHT22;26324;52.040;11.528;2023-04-03T03:51:27;-3275.90;84.20
40622;DHT22;26324;52.040;11.528;2023-04-03T03:53:55;-3275.90;84.10
40622;DHT22;26324;52.040;11.528;2023-04-03T03:56:22;-3275.90;84.20
40622;DHT22;26324;52.040;11.528;2023-04-03T03:58:50;-3275.90;84.30
40622;DHT22;26324;52.040;11.528;2023-04-03T04:01:17;-3275.90;84.20
40622;DHT22;26324;52.040;11.528;2023-04-03T04:03:47;-3275.90;84.20
40622;DHT22;26324;52.040;11.528;2023-04-03T04:06:19;-3275.80;84.30
40622;DHT22;26324;52.040;11.528;2023-04-03T04:08:47;-3275.80;84.40
40622;DHT22;26324;52.040;11.528;2023-04-03T04:11:14;-3275.80;84.40
40622;DHT22;26324;52.040;11.528;2023-04-03T04:13:43;-3275.80;84.40
40622;DHT22;26324;52.040;11.528;2023-04-03T04:16:12;-3275.80;84.30
40622;DHT22;26324;52.040;11.528;2023-04-03T04:18:39;-3275.80;84.20
40622;DHT22;26324;52.040;11.528;2023-04-03T04:21:06;-3275.80;84.30
40622;DHT22;26324;52.040;11.528;2023-04-03T04:23:34;-3275.70;84.20
40622;DHT22;26324;52.040;11.528;2023-04-03T04:26:01;-3275.80;84.20
40622;DHT22;26324;52.040;11.528;2023-04-03T04:28:33;-3275.80;84.10
40622;DHT22;26324;52.040;11.528;2023-04-03T04:31:02;-3275.80;84.00
40622;DHT22;26324;52.040;11.528;2023-04-03T04:33:30;-3275.80;84.00
40622;DHT22;26324;52.040;11.528;2023-04-03T04:36:00;-3275.70;84.10
40622;DHT22;26324;52.040;11.528;2023-04-03T04:38:28;-3275.80;84.10
40622;DHT22;26324;52.040;11.528;2023-04-03T04:40:55;-3275.80;84.20
40622;DHT22;26324;52.040;11.528;2023-04-03T04:43:23;-3275.80;84.20
40622;DHT22;26324;52.040;11.528;2023-04-03T04:46:07;-3275.90;84.10
40622;DHT22;26324;52.040;11.528;2023-04-03T04:48:40;-3275.90;84.20
40622;DHT22;26324;52.040;11.528;2023-04-03T04:51:08;-3275.90;84.10
40622;DHT22;26324;52.040;11.528;2023-04-03T04:53:37;-3275.90;84.10
40622;DHT22;26324;52.040;11.528;2023-04-03T04:56:06;-3275.90;84.00
40622;DHT22;26324;52.040;11.528;2023-04-03T04:58:34;-3275.90;84.00
40622;DHT22;26324;52.040;11.528;2023-04-03T05:01:04;-3275.90;84.10
40622;DHT22;26324;52.040;11.528;2023-04-03T05:03:35;-3275.90;84.10
40622;DHT22;26324;52.040;11.528;2023-04-03T05:06:03;-3275.90;84.20
40622;DHT22;26324;52.040;11.528;2023-04-03T05:08:32;-3275.90;84.10
40622;DHT22;26324;52.040;11.528;2023-04-03T05:11:00;-3275.90;84.10
40622;DHT22;26324;52.040;11.528;2023-04-03T05:13:27;-3275.90;84.00
40622;DHT22;26324;52.040;11.528;2023-04-03T05:15:56;-3275.90;84.10
40622;DHT22;26324;52.040;11.528;2023-04-03T05:18:23;-3275.90;84.20
40622;DHT22;26324;52.040;11.528;2023-04-03T05:20:53;-3276.00;84.20
40622;DHT22;26324;52.040;11.528;2023-04-03T05:23:21;-3276.00;84.30
40622;DHT22;26324;52.040;11.528;2023-04-03T05:25:48;-3276.00;84.30
40622;DHT22;26324;52.040;11.528;2023-04-03T05:28:16;-3276.00;84.30
40622;DHT22;26324;52.040;11.528;2023-04-03T05:30:44;-3276.10;84.30
40622;DHT22;26324;52.040;11.528;2023-04-03T05:33:11;-3276.10;84.30
40622;DHT22;26324;52.040;11.528;2023-04-03T05:35:45;-3276.20;84.20
40622;DHT22;26324;52.040;11.528;2023-04-03T05:38:17;-3276.20;84.30
40622;DHT22;26324;52.040;11.528;2023-04-03T05:40:45;-3276.30;84.20
40622;DHT22;26324;52.040;11.528;2023-04-03T05:43:12;-3276.30;84.10
40622;DHT22;26324;52.040;11.528;2023-04-03T05:45:43;-3276.40;84.10
40622;DHT22;26324;52.040;11.528;2023-04-03T05:48:13;-3276.40;84.10
40622;DHT22;26324;52.040;11.528;2023-04-03T05:50:41;-3276.50;84.00
40622;DHT22;26324;52.040;11.528;2023-04-03T05:53:21;-3276.60;84.00
40622;DHT22;26324;52.040;11.528;2023-04-03T05:55:48;-3276.60;83.90
40622;DHT22;26324;52.040;11.528;2023-04-03T05:58:16;-3276.70;83.80
40622;DHT22;26324;52.040;11.528;2023-04-03T06:00:45;-3276.70;83.80
40622;DHT22;26324;52.040;11.528;2023-04-03T06:03:13;0.00;83.70
40622;DHT22;26324;52.040;11.528;2023-04-03T06:05:40;0.00;83.70
40622;DHT22;26324;52.040;11.528;2023-04-03T06:08:10;0.00;83.60
40622;DHT22;26324;52.040;11.528;2023-04-03T06:10:38;0.10;83.60
40622;DHT22;26324;52.040;11.528;2023-04-03T06:13:06;0.10;83.50
40622;DHT22;26324;52.040;11.528;2023-04-03T06:15:34;0.20;83.40
40622;DHT22;26324;52.040;11.528;2023-04-03T06:18:01;0.30;83.20
40622;DHT22;26324;52.040;11.528;2023-04-03T06:20:28;0.40;83.00
40622;DHT22;26324;52.040;11.528;2023-04-03T06:22:55;0.50;82.60
40622;DHT22;26324;52.040;11.528;2023-04-03T06:25:23;0.60;82.40
40622;DHT22;26324;52.040;11.528;2023-04-03T06:27:50;0.60;82.20
40622;DHT22;26324;52.040;11.528;2023-04-03T06:30:17;0.70;82.30
40622;DHT22;26324;52.040;11.528;2023-04-03T06:32:45;0.80;82.00
40622;DHT22;26324;52.040;11.528;2023-04-03T06:35:12;0.80;81.70
40622;DHT22;26324;52.040;11.528;2023-04-03T06:37:39;0.90;81.40
40622;DHT22;26324;52.040;11.528;2023-04-03T06:40:09;1.00;81.40
40622;DHT22;26324;52.040;11.528;2023-04-03T06:42:40;1.10;81.10
40622;DHT22;26324;52.040;11.528;2023-04-03T06:45:10;1.10;80.60
40622;DHT22;26324;52.040;11.528;2023-04-03T06:47:38;1.20;80.50
40622;DHT22;26324;52.040;11.528;2023-04-03T06:50:06;1.20;80.60
40622;DHT22;26324;52.040;11.528;2023-04-03T06:52:34;1.30;80.90
40622;DHT22;26324;52.040;11.528;2023-04-03T06:55:01;1.50;81.20
40622;DHT22;26324;52.040;11.528;2023-04-03T06:57:29;1.60;80.30
40622;DHT22;26324;52.040;11.528;2023-04-03T06:59:56;1.60;79.90
40622;DHT22;26324;52.040;11.528;2023-04-03T07:02:24;1.80;79.70
40622;DHT22;26324;52.040;11.528;2023-04-03T07:04:51;1.80;78.70
40622;DHT22;26324;52.040;11.528;2023-04-03T07:07:18;1.90;78.70
40622;DHT22;26324;52.040;11.528;2023-04-03T07:09:46;2.00;78.40
40622;DHT22;26324;52.040;11.528;2023-04-03T07:12:15;2.00;77.50
40622;DHT22;26324;52.040;11.528;2023-04-03T07:14:43;2.10;78.00
40622;DHT22;26324;52.040;11.528;2023-04-03T07:17:10;2.30;77.90
40622;DHT22;26324;52.040;11.528;2023-04-03T07:19:38;2.30;77.20
40622;DHT22;26324;52.040;11.528;2023-04-03T07:22:05;2.40;77.60
40622;DHT22;26324;52.040;11.528;2023-04-03T07:24:32;2.50;77.20
40622;DHT22;26324;52.040;11.528;2023-04-03T07:27:00;2.60;77.00
40622;DHT22;26324;52.040;11.528;2023-04-03T07:29:28;2.60;76.50
40622;DHT22;26324;52.040;11.528;2023-04-03T07:31:56;2.80;76.40
40622;DHT22;26324;52.040;11.528;2023-04-03T07:34:23;2.90;76.10
40622;DHT22;26324;52.040;11.528;2023-04-03T07:36:51;2.90;76.10
40622;DHT22;26324;52.040;11.528;2023-04-03T07:39:18;3.00;76.50
40622;DHT22;26324;52.040;11.528;2023-04-03T07:41:45;3.10;76.70
40622;DHT22;26324;52.040;11.528;2023-04-03T07:44:13;3.30;75.90
40622;DHT22;26324;52.040;11.528;2023-04-03T07:46:40;3.60;74.00
40622;DHT22;26324;52.040;11.528;2023-04-03T07:49:08;3.80;74.40
40622;DHT22;26324;52.040;11.528;2023-04-03T07:51:35;3.90;72.50
40622;DHT22;26324;52.040;11.528;2023-04-03T07:54:03;4.00;72.40
40622;DHT22;26324;52.040;11.528;2023-04-03T07:56:31;4.10;71.00
40622;DHT22;26324;52.040;11.528;2023-04-03T07:58:59;4.10;70.20
40622;DHT22;26324;52.040;11.528;2023-04-03T08:01:26;4.30;71.10
40622;DHT22;26324;52.040;11.528;2023-04-03T08:03:53;4.40;70.70
40622;DHT22;26324;52.040;11.528;2023-04-03T08:06:21;4.60;70.40
40622;DHT22;26324;52.040;11.528;2023-04-03T08:09:04;4.80;68.70
40622;DHT22;26324;52.040;11.528;2023-04-03T08:11:31;4.80;68.20
40622;DHT22;26324;52.040;11.528;2023-04-03T08:13:58;4.80;68.60
40622;DHT22;26324;52.040;11.528;2023-04-03T08:16:25;4.80;69.30
40622;DHT22;26324;52.040;11.528;2023-04-03T08:18:54;5.10;70.60
40622;DHT22;26324;52.040;11.528;2023-04-03T08:21:21;5.40;69.80
40622;DHT22;26324;52.040;11.528;2023-04-03T08:23:49;5.50;67.20
40622;DHT22;26324;52.040;11.528;2023-04-03T08:26:20;5.60;67.00
40622;DHT22;26324;52.040;11.528;2023-04-03T08:28:48;5.90;67.20
40622;DHT22;26324;52.040;11.528;2023-04-03T08:31:18;6.00;66.30
40622;DHT22;26324;52.040;11.528;2023-04-03T08:33:47;6.10;62.60
40622;DHT22;26324;52.040;11.528;2023-04-03T08:36:23;6.30;64.10
40622;DHT22;26324;52.040;11.528;2023-04-03T08:38:51;6.40;65.00
40622;DHT22;26324;52.040;11.528;2023-04-03T08:50:07;6.60;59.90
40622;DHT22;26324;52.040;11.528;2023-04-03T08:52:44;6.60;60.80
40622;DHT22;26324;52.040;11.528;2023-04-03T08:55:25;6.60;60.20
40622;DHT22;26324;52.040;11.528;2023-04-03T08:58:03;6.80;58.60
40622;DHT22;26324;52.040;11.528;2023-04-03T09:00:44;7.10;59.20
40622;DHT22;26324;52.040;11.528;2023-04-03T09:03:15;7.60;60.30
40622;DHT22;26324;52.040;11.528;2023-04-03T09:05:45;7.70;56.80
40622;DHT22;26324;52.040;11.528;2023-04-03T09:08:29;8.00;56.80
40622;DHT22;26324;52.040;11.528;2023-04-03T09:11:13;8.10;53.90
40622;DHT22;26324;52.040;11.528;2023-04-03T09:13:54;8.10;53.90
40622;DHT22;26324;52.040;11.528;2023-04-03T09:16:54;7.80;53.20
40622;DHT22;26324;52.040;11.528;2023-04-03T09:22:07;7.10;53.10
40622;DHT22;26324;52.040;11.528;2023-04-03T09:24:38;7.20;56.50
40622;DHT22;26324;52.040;11.528;2023-04-03T09:27:09;7.30;53.70
40622;DHT22;26324;52.040;11.528;2023-04-03T09:29:40;7.20;52.40
40622;DHT22;26324;52.040;11.528;2023-04-03T09:32:30;7.40;53.40
40622;DHT22;26324;52.040;11.528;2023-04-03T09:35:04;7.20;51.20
40622;DHT22;26324;52.040;11.528;2023-04-03T09:37:54;7.10;55.40
40622;DHT22;26324;52.040;11.528;2023-04-03T09:40:34;7.10;54.50
40622;DHT22;26324;52.040;11.528;2023-04-03T09:43:20;7.10;52.60
40622;DHT22;26324;52.040;11.528;2023-04-03T09:45:49;7.10;53.70
40622;DHT22;26324;52.040;11.528;2023-04-03T09:48:22;7.40;54.20
40622;DHT22;26324;52.040;11.528;2023-04-03T09:53:37;7.60;50.60
40622;DHT22;26324;52.040;11.528;2023-04-03T09:58:46;8.40;51.90
40622;DHT22;26324;52.040;11.528;2023-04-03T10:01:26;8.60;49.90
40622;DHT22;26324;52.040;11.528;2023-04-03T10:04:14;8.40;48.10
40622;DHT22;26324;52.040;11.528;2023-04-03T10:06:45;8.30;48.90
40622;DHT22;26324;52.040;11.528;2023-04-03T10:09:28;8.40;51.90
40622;DHT22;26324;52.040;11.528;2023-04-03T10:12:12;8.70;51.40
40622;DHT22;26324;52.040;11.528;2023-04-03T10:14:56;8.90;49.30
40622;DHT22;26324;52.040;11.528;2023-04-03T10:17:46;8.90;47.70
40622;DHT22;26324;52.040;11.528;2023-04-03T10:20:39;8.70;46.80
40622;DHT22;26324;52.040;11.528;2023-04-03T10:23:18;8.40;49.10
40622;DHT22;26324;52.040;11.528;2023-04-03T10:26:17;8.30;48.90
40622;DHT22;26324;52.040;11.528;2023-04-03T10:32:20;8.30;47.30
40622;DHT22;26324;52.040;11.528;2023-04-03T10:34:57;7.90;47.40
40622;DHT22;26324;52.040;11.528;2023-04-03T10:37:46;7.60;49.20
40622;DHT22;26324;52.040;11.528;2023-04-03T10:46:27;8.30;48.60
40622;DHT22;26324;52.040;11.528;2023-04-03T10:49:25;8.60;49.10
40622;DHT22;26324;52.040;11.528;2023-04-03T10:52:20;9.10;48.60
40622;DHT22;26324;52.040;11.528;2023-04-03T10:58:26;9.10;45.80
40622;DHT22;26324;52.040;11.528;2023-04-03T11:01:05;9.50;46.10
40622;DHT22;26324;52.040;11.528;2023-04-03T11:03:36;9.90;47.10
40622;DHT22;26324;52.040;11.528;2023-04-03T11:06:11;10.00;43.50
40622;DHT22;26324;52.040;11.528;2023-04-03T11:08:45;9.60;44.90
40622;DHT22;26324;52.040;11.528;2023-04-03T11:11:17;9.50;44.80
40622;DHT22;26324;52.040;11.528;2023-04-03T11:14:02;9.10;46.20
40622;DHT22;26324;52.040;11.528;2023-04-03T11:16:34;8.60;46.10
40622;DHT22;26324;52.040;11.528;2023-04-03T11:19:21;8.10;47.10
40622;DHT22;26324;52.040;11.528;2023-04-03T11:22:10;7.70;47.00
40622;DHT22;26324;52.040;11.528;2023-04-03T11:24:41;7.30;47.40
40622;DHT22;26324;52.040;11.528;2023-04-03T11:27:19;7.00;47.80
40622;DHT22;26324;52.040;11.528;2023-04-03T11:29:50;6.90;48.70
40622;DHT22;26324;52.040;11.528;2023-04-03T11:32:36;6.80;48.20
40622;DHT22;26324;52.040;11.528;2023-04-03T11:35:08;6.80;49.20
40622;DHT22;26324;52.040;11.528;2023-04-03T11:37:40;7.00;48.90
40622;DHT22;26324;52.040;11.528;2023-04-03T11:40:21;7.10;47.20
40622;DHT22;26324;52.040;11.528;2023-04-03T11:42:53;7.10;48.60
40622;DHT22;26324;52.040;11.528;2023-04-03T11:47:54;7.70;48.20
40622;DHT22;26324;52.040;11.528;2023-04-03T12:14:04;8.10;45.90
40622;DHT22;26324;52.040;11.528;2023-04-03T12:32:42;8.30;43.50
40622;DHT22;26324;52.040;11.528;2023-04-03T12:35:28;8.40;43.50
40622;DHT22;26324;52.040;11.528;2023-04-03T12:46:17;10.60;42.10
40622;DHT22;26324;52.040;11.528;2023-04-03T12:51:19;11.10;39.30
40622;DHT22;26324;52.040;11.528;2023-04-03T12:53:49;10.80;37.70
40622;DHT22;26324;52.040;11.528;2023-04-03T12:56:38;10.30;38.30
40622;DHT22;26324;52.040;11.528;2023-04-03T12:59:19;9.80;40.40
40622;DHT22;26324;52.040;11.528;2023-04-03T13:01:58;10.00;39.70
40622;DHT22;26324;52.040;11.528;2023-04-03T13:04:31;10.20;43.00
40622;DHT22;26324;52.040;11.528;2023-04-03T13:06:59;10.40;40.90
40622;DHT22;26324;52.040;11.528;2023-04-03T13:09:31;10.20;41.70
40622;DHT22;26324;52.040;11.528;2023-04-03T13:12:10;10.00;40.70
40622;DHT22;26324;52.040;11.528;2023-04-03T13:14:38;9.60;40.30
40622;DHT22;26324;52.040;11.528;2023-04-03T13:17:15;9.20;39.50
40622;DHT22;26324;52.040;11.528;2023-04-03T13:19:44;8.80;39.80
40622;DHT22;26324;52.040;11.528;2023-04-03T13:22:33;8.50;41.40
40622;DHT22;26324;52.040;11.528;2023-04-03T13:25:09;8.30;42.80
40622;DHT22;26324;52.040;11.528;2023-04-03T13:27:38;8.30;42.70
40622;DHT22;26324;52.040;11.528;2023-04-03T13:30:25;9.30;43.90
40622;DHT22;26324;52.040;11.528;2023-04-03T13:32:55;10.70;39.90
40622;DHT22;26324;52.040;11.528;2023-04-03T13:37:57;11.10;39.10
40622;DHT22;26324;52.040;11.528;2023-04-03T13:40:25;10.20;40.00
40622;DHT22;26324;52.040;11.528;2023-04-03T13:43:04;9.60;42.10
40622;DHT22;26324;52.040;11.528;2023-04-03T13:45:33;9.20;42.70
40622;DHT22;26324;52.040;11.528;2023-04-03T13:48:19;9.00;41.60
40622;DHT22;26324;52.040;11.528;2023-04-03T13:50:57;8.60;40.10
40622;DHT22;26324;52.040;11.528;2023-04-03T13:53:26;8.30;43.10
40622;DHT22;26324;52.040;11.528;2023-04-03T13:56:07;9.60;43.50
40622;DHT22;26324;52.040;11.528;2023-04-03T13:58:35;11.60;39.20
40622;DHT22;26324;52.040;11.528;2023-04-03T14:01:19;11.70;36.70
40622;DHT22;26324;52.040;11.528;2023-04-03T14:04:01;10.80;36.00
40622;DHT22;26324;52.040;11.528;2023-04-03T14:06:36;10.00;40.50
40622;DHT22;26324;52.040;11.528;2023-04-03T14:09:03;9.50;38.80
40622;DHT22;26324;52.040;11.528;2023-04-03T14:11:31;9.30;42.20
40622;DHT22;26324;52.040;11.528;2023-04-03T14:14:11;9.60;42.30
40622;DHT22;26324;52.040;11.528;2023-04-03T14:16:43;9.90;41.30
40622;DHT22;26324;52.040;11.528;2023-04-03T14:19:36;10.20;39.40
40622;DHT22;26324;52.040;11.528;2023-04-03T14:22:15;10.50;39.60
40622;DHT22;26324;52.040;11.528;2023-04-03T14:24:44;10.50;39.40
40622;DHT22;26324;52.040;11.528;2023-04-03T14:27:17;10.20;39.50
40622;DHT22;26324;52.040;11.528;2023-04-03T14:29:44;10.10;39.70
40622;DHT22;26324;52.040;11.528;2023-04-03T14:32:13;9.80;39.20
40622;DHT22;26324;52.040;11.528;2023-04-03T14:34:42;9.50;39.90
40622;DHT22;26324;52.040;11.528;2023-04-03T14:37:16;9.30;42.40
40622;DHT22;26324;52.040;11.528;2023-04-03T14:39:44;9.40;41.30
40622;DHT22;26324;52.040;11.528;2023-04-03T14:42:16;10.90;40.40
40622;DHT22;26324;52.040;11.528;2023-04-03T14:44:44;12.00;35.20
40622;DHT22;26324;52.040;11.528;2023-04-03T14:47:19;13.70;37.50
40622;DHT22;26324;52.040;11.528;2023-04-03T14:50:00;15.50;29.60
40622;DHT22;26324;52.040;11.528;2023-04-03T14:52:31;15.00;29.30
40622;DHT22;26324;52.040;11.528;2023-04-03T14:55:00;13.90;30.90
40622;DHT22;26324;52.040;11.528;2023-04-03T14:57:28;13.70;31.20
40622;DHT22;26324;52.040;11.528;2023-04-03T14:59:57;13.50;32.50
40622;DHT22;26324;52.040;11.528;2023-04-03T15:02:35;12.60;34.10
40622;DHT22;26324;52.040;11.528;2023-04-03T15:05:09;13.70;33.10
40622;DHT22;26324;52.040;11.528;2023-04-03T15:07:52;15.10;31.50
40622;DHT22;26324;52.040;11.528;2023-04-03T15:10:28;14.80;30.70
40622;DHT22;26324;52.040;11.528;2023-04-03T15:12:56;13.70;31.90
40622;DHT22;26324;52.040;11.528;2023-04-03T15:15:24;12.90;32.90
40622;DHT22;26324;52.040;11.528;2023-04-03T15:17:56;11.80;33.00
40622;DHT22;26324;52.040;11.528;2023-04-03T15:20:28;10.70;35.90
40622;DHT22;26324;52.040;11.528;2023-04-03T15:22:57;9.70;37.20
40622;DHT22;26324;52.040;11.528;2023-04-03T15:25:28;9.30;38.70
40622;DHT22;26324;52.040;11.528;2023-04-03T15:27:56;8.90;39.60
40622;DHT22;26324;52.040;11.528;2023-04-03T15:30:24;9.10;41.30
40622;DHT22;26324;52.040;11.528;2023-04-03T15:32:51;9.80;41.90
40622;DHT22;26324;52.040;11.528;2023-04-03T15:35:20;11.60;37.10
40622;DHT22;26324;52.040;11.528;2023-04-03T15:37:47;12.20;34.80
40622;DHT22;26324;52.040;11.528;2023-04-03T15:40:15;11.90;35.50
40622;DHT22;26324;52.040;11.528;2023-04-03T15:42:43;11.30;35.20
40622;DHT22;26324;52.040;11.528;2023-04-03T15:45:10;10.70;36.70
40622;DHT22;26324;52.040;11.528;2023-04-03T15:47:38;10.40;38.30
40622;DHT22;26324;52.040;11.528;2023-04-03T15:50:06;10.10;38.70
40622;DHT22;26324;52.040;11.528;2023-04-03T15:52:35;9.70;42.10
40622;DHT22;26324;52.040;11.528;2023-04-03T15:55:03;10.00;40.50
40622;DHT22;26324;52.040;11.528;2023-04-03T15:57:30;10.30;38.00
40622;DHT22;26324;52.040;11.528;2023-04-03T16:00:03;10.10;40.50
40622;DHT22;26324;52.040;11.528;2023-04-03T16:02:33;9.70;41.10
40622;DHT22;26324;52.040;11.528;2023-04-03T16:05:01;9.10;41.70
40622;DHT22;26324;52.040;11.528;2023-04-03T16:07:29;8.60;42.20
40622;DHT22;26324;52.040;11.528;2023-04-03T16:09:56;8.40;44.60
40622;DHT22;26324;52.040;11.528;2023-04-03T16:12:23;8.10;45.20
40622;DHT22;26324;52.040;11.528;2023-04-03T16:14:51;8.10;45.20
40622;DHT22;26324;52.040;11.528;2023-04-03T16:17:18;8.00;45.80
40622;DHT22;26324;52.040;11.528;2023-04-03T16:19:46;8.10;45.70
40622;DHT22;26324;52.040;11.528;2023-04-03T16:22:13;8.10;43.60
40622;DHT22;26324;52.040;11.528;2023-04-03T16:24:40;8.40;43.40
40622;DHT22;26324;52.040;11.528;2023-04-03T16:27:07;8.80;42.20
40622;DHT22;26324;52.040;11.528;2023-04-03T16:29:35;9.00;41.60
40622;DHT22;26324;52.040;11.528;2023-04-03T16:32:02;8.80;41.70
40622;DHT22;26324;52.040;11.528;2023-04-03T16:34:30;8.50;42.10
40622;DHT22;26324;52.040;11.528;2023-04-03T16:36:59;8.20;43.50
40622;DHT22;26324;52.040;11.528;2023-04-03T16:39:26;8.10;44.90
40622;DHT22;26324;52.040;11.528;2023-04-03T16:41:53;8.00;44.40
40622;DHT22;26324;52.040;11.528;2023-04-03T16:44:21;7.60;45.90
40622;DHT22;26324;52.040;11.528;2023-04-03T16:46:48;7.60;47.50
40622;DHT22;26324;52.040;11.528;2023-04-03T16:49:16;7.50;46.60
40622;DHT22;26324;52.040;11.528;2023-04-03T16:51:43;7.40;47.30
40622;DHT22;26324;52.040;11.528;2023-04-03T16:54:11;7.50;48.10
40622;DHT22;26324;52.040;11.528;2023-04-03T16:56:40;7.40;48.50
40622;DHT22;26324;52.040;11.528;2023-04-03T16:59:07;7.40;49.10
40622;DHT22;26324;52.040;11.528;2023-04-03T17:01:35;7.20;48.40
40622;DHT22;26324;52.040;11.528;2023-04-03T17:04:02;7.10;47.90
40622;DHT22;26324;52.040;11.528;2023-04-03T17:06:29;7.10;48.50
40622;DHT22;26324;52.040;11.528;2023-04-03T17:08:57;7.00;47.00
40622;DHT22;26324;52.040;11.528;2023-04-03T17:11:28;6.80;46.80